sensor_id;sensor_type;location;lat;lon;timestamp;temperature;humidity
65291;SHT30;51893;59.754;10.110;2023-10-08T00:01:15;2.57;70.40
65291;SHT30;51893;59.754;10.110;2023-10-08T00:03:44;2.64;70.83
65291;SHT30;51893;59.754;10.110;2023-10-08T00:06:20;2.68;70.63
65291;SHT30;51893;59.754;10.110;2023-10-08T00:08:49;2.64;70.62
65291;SHT30;51893;59.754;10.110;2023-10-08T00:11:18;2.64;70.62
65291;SHT30;51893;59.754;10.110;2023-10-08T00:13:47;2.63;70.32
65291;SHT30;51893;59.754;10.110;2023-10-08T00:16:14;2.52;70.43
65291;SHT30;51893;59.754;10.110;2023-10-08T00:18:43;2.47;70.29
65291;SHT30;51893;59.754;10.110;2023-10-08T00:21:21;2.42;70.57
65291;SHT30;51893;59.754;10.110;2023-10-08T00:23:55;2.40;71.54
65291;SHT30;51893;59.754;10.110;2023-10-08T00:26:27;2.41;71.80
65291;SHT30;51893;59.754;10.110;2023-10-08T00:29:01;2.39;72.13
65291;SHT30;51893;59.754;10.110;2023-10-08T00:31:33;2.38;72.07
65291;SHT30;51893;59.754;10.110;2023-10-08T00:34:07;2.39;72.03
65291;SHT30;51893;59.754;10.110;2023-10-08T00:36:41;2.33;72.01
65291;SHT30;51893;59.754;10.110;2023-10-08T00:39:14;2.29;71.94
65291;SHT30;51893;59.754;10.110;2023-10-08T00:41:50;2.29;71.93
65291;SHT30;51893;59.754;10.110;2023-10-08T00:44:26;2.36;71.63
65291;SHT30;51893;59.754;10.110;2023-10-08T00:46:56;2.43;71.30
65291;SHT30;51893;59.754;10.110;2023-10-08T00:49:27;2.50;71.20
65291;SHT30;51893;59.754;10.110;2023-10-08T00:52:14;2.52;71.44
65291;SHT30;51893;59.754;10.110;2023-10-08T00:54:42;2.52;71.28
65291;SHT30;51893;59.754;10.110;2023-10-08T00:57:22;2.48;71.25
65291;SHT30;51893;59.754;10.110;2023-10-08T00:59:53;2.45;71.23
65291;SHT30;51893;59.754;10.110;2023-10-08T01:02:24;2.42;70.98
65291;SHT30;51893;59.754;10.110;2023-10-08T01:04:55;2.39;71.07
65291;SHT30;51893;59.754;10.110;2023-10-08T01:07:23;2.40;71.18
65291;SHT30;51893;59.754;10.110;2023-10-08T01:09:54;2.39;71.22
65291;SHT30;51893;59.754;10.110;2023-10-08T01:12:30;2.35;71.52
65291;SHT30;51893;59.754;10.110;2023-10-08T01:15:02;2.28;71.92
65291;SHT30;51893;59.754;10.110;2023-10-08T01:17:50;2.20;72.11
65291;SHT30;51893;59.754;10.110;2023-10-08T01:20:32;2.17;71.85
65291;SHT30;51893;59.754;10.110;2023-10-08T01:23:01;2.16;71.35
65291;SHT30;51893;59.754;10.110;2023-10-08T01:25:44;2.18;71.18
65291;SHT30;51893;59.754;10.110;2023-10-08T01:28:19;2.22;71.03
65291;SHT30;51893;59.754;10.110;2023-10-08T01:31:03;2.25;71.04
65291;SHT30;51893;59.754;10.110;2023-10-08T01:33:34;2.27;71.07
65291;SHT30;51893;59.754;10.110;2023-10-08T01:36:05;2.25;71.33
65291;SHT30;51893;59.754;10.110;2023-10-08T01:38:39;2.26;71.78
65291;SHT30;51893;59.754;10.110;2023-10-08T01:41:09;2.23;72.38
65291;SHT30;51893;59.754;10.110;2023-10-08T01:43:46;2.26;72.90
65291;SHT30;51893;59.754;10.110;2023-10-08T01:46:13;2.29;73.13
65291;SHT30;51893;59.754;10.110;2023-10-08T01:48:46;2.31;73.20
65291;SHT30;51893;59.754;10.110;2023-10-08T01:51:19;2.35;73.11
65291;SHT30;51893;59.754;10.110;2023-10-08T01:54:03;2.39;72.93
65291;SHT30;51893;59.754;10.110;2023-10-08T01:56:40;2.46;72.37
65291;SHT30;51893;59.754;10.110;2023-10-08T01:59:13;2.54;72.12
65291;SHT30;51893;59.754;10.110;2023-10-08T02:01:43;2.66;71.41
65291;SHT30;51893;59.754;10.110;2023-10-08T02:04:11;2.78;70.74
65291;SHT30;51893;59.754;10.110;2023-10-08T02:06:39;2.85;70.56
65291;SHT30;51893;59.754;10.110;2023-10-08T02:09:06;2.90;70.28
65291;SHT30;51893;59.754;10.110;2023-10-08T02:11:43;2.89;70.00
65291;SHT30;51893;59.754;10.110;2023-10-08T02:14:20;2.86;70.16
65291;SHT30;51893;59.754;10.110;2023-10-08T02:16:50;2.78;70.40
65291;SHT30;51893;59.754;10.110;2023-10-08T02:19:22;2.69;70.77
65291;SHT30;51893;59.754;10.110;2023-10-08T02:21:56;2.63;70.98
65291;SHT30;51893;59.754;10.110;2023-10-08T02:24:30;2.59;71.09
65291;SHT30;51893;59.754;10.110;2023-10-08T02:26:57;2.61;70.88
65291;SHT30;51893;59.754;10.110;2023-10-08T02:29:27;2.65;70.81
65291;SHT30;51893;59.754;10.110;2023-10-08T02:31:56;2.70;70.66
65291;SHT30;51893;59.754;10.110;2023-10-08T02:34:27;2.74;70.73
65291;SHT30;51893;59.754;10.110;2023-10-08T02:36:56;2.77;70.17
65291;SHT30;51893;59.754;10.110;2023-10-08T02:39:25;2.81;69.92
65291;SHT30;51893;59.754;10.110;2023-10-08T02:41:53;2.67;70.38
65291;SHT30;51893;59.754;10.110;2023-10-08T02:44:25;2.63;70.69
65291;SHT30;51893;59.754;10.110;2023-10-08T02:46:55;2.59;70.86
65291;SHT30;51893;59.754;10.110;2023-10-08T02:49:22;2.54;71.24
65291;SHT30;51893;59.754;10.110;2023-10-08T02:51:52;2.45;71.49
65291;SHT30;51893;59.754;10.110;2023-10-08T02:54:22;2.35;71.90
65291;SHT30;51893;59.754;10.110;2023-10-08T02:56:57;2.36;71.97
65291;SHT30;51893;59.754;10.110;2023-10-08T02:59:32;2.35;72.16
65291;SHT30;51893;59.754;10.110;2023-10-08T03:02:07;2.31;72.11
65291;SHT30;51893;59.754;10.110;2023-10-08T03:04:45;2.27;72.33
65291;SHT30;51893;59.754;10.110;2023-10-08T03:07:16;2.21;72.07
65291;SHT30;51893;59.754;10.110;2023-10-08T03:10:01;2.15;72.32
65291;SHT30;51893;59.754;10.110;2023-10-08T03:12:32;2.12;72.23
65291;SHT30;51893;59.754;10.110;2023-10-08T03:15:01;2.10;72.54
65291;SHT30;51893;59.754;10.110;2023-10-08T03:17:55;2.08;72.59
65291;SHT30;51893;59.754;10.110;2023-10-08T03:20:36;2.10;72.69
65291;SHT30;51893;59.754;10.110;2023-10-08T03:23:09;2.13;72.36
65291;SHT30;51893;59.754;10.110;2023-10-08T03:25:59;2.20;71.95
65291;SHT30;51893;59.754;10.110;2023-10-08T03:28:36;2.19;71.96
65291;SHT30;51893;59.754;10.110;2023-10-08T03:31:04;2.18;71.97
65291;SHT30;51893;59.754;10.110;2023-10-08T03:33:40;2.18;72.04
65291;SHT30;51893;59.754;10.110;2023-10-08T03:36:09;2.16;72.33
65291;SHT30;51893;59.754;10.110;2023-10-08T03:38:56;2.09;72.76
65291;SHT30;51893;59.754;10.110;2023-10-08T03:41:24;2.02;72.95
65291;SHT30;51893;59.754;10.110;2023-10-08T03:43:56;1.96;73.15
65291;SHT30;51893;59.754;10.110;2023-10-08T03:46:33;2.00;73.31
65291;SHT30;51893;59.754;10.110;2023-10-08T03:49:09;2.13;73.43
65291;SHT30;51893;59.754;10.110;2023-10-08T03:51:49;2.24;73.18
65291;SHT30;51893;59.754;10.110;2023-10-08T03:54:18;2.25;73.12
65291;SHT30;51893;59.754;10.110;2023-10-08T03:57:00;2.10;73.10
65291;SHT30;51893;59.754;10.110;2023-10-08T03:59:27;2.07;73.12
65291;SHT30;51893;59.754;10.110;2023-10-08T04:02:01;2.02;73.11
65291;SHT30;51893;59.754;10.110;2023-10-08T04:04:50;2.03;72.88
65291;SHT30;51893;59.754;10.110;2023-10-08T04:07:23;2.05;72.60
65291;SHT30;51893;59.754;10.110;2023-10-08T04:10:27;2.08;72.07
65291;SHT30;51893;59.754;10.110;2023-10-08T04:13:01;2.10;71.99
65291;SHT30;51893;59.754;10.110;2023-10-08T04:15:27;2.09;72.08
65291;SHT30;51893;59.754;10.110;2023-10-08T04:17:54;2.09;72.16
65291;SHT30;51893;59.754;10.110;2023-10-08T04:20:23;2.15;72.18
65291;SHT30;51893;59.754;10.110;2023-10-08T04:23:10;2.14;72.26
65291;SHT30;51893;59.754;10.110;2023-10-08T04:25:46;2.14;72.23
65291;SHT30;51893;59.754;10.110;2023-10-08T04:28:20;2.09;72.15
65291;SHT30;51893;59.754;10.110;2023-10-08T04:30:48;2.05;72.53
65291;SHT30;51893;59.754;10.110;2023-10-08T04:33:17;1.96;72.69
65291;SHT30;51893;59.754;10.110;2023-10-08T04:35:46;1.85;72.66
65291;SHT30;51893;59.754;10.110;2023-10-08T04:38:19;1.78;72.95
65291;SHT30;51893;59.754;10.110;2023-10-08T04:40:50;1.70;72.94
65291;SHT30;51893;59.754;10.110;2023-10-08T04:43:18;1.66;72.99
65291;SHT30;51893;59.754;10.110;2023-10-08T04:45:51;1.68;73.05
65291;SHT30;51893;59.754;10.110;2023-10-08T04:48:19;1.63;73.21
65291;SHT30;51893;59.754;10.110;2023-10-08T04:50:49;1.57;73.36
65291;SHT30;51893;59.754;10.110;2023-10-08T04:53:30;1.54;73.57
65291;SHT30;51893;59.754;10.110;2023-10-08T04:56:04;1.50;73.68
65291;SHT30;51893;59.754;10.110;2023-10-08T04:58:46;1.49;73.80
65291;SHT30;51893;59.754;10.110;2023-10-08T05:01:14;1.46;73.99
65291;SHT30;51893;59.754;10.110;2023-10-08T05:03:47;1.39;73.89
65291;SHT30;51893;59.754;10.110;2023-10-08T05:06:34;1.35;73.98
65291;SHT30;51893;59.754;10.110;2023-10-08T05:09:06;1.25;74.07
65291;SHT30;51893;59.754;10.110;2023-10-08T05:11:45;1.19;74.38
65291;SHT30;51893;59.754;10.110;2023-10-08T05:14:55;1.15;74.73
65291;SHT30;51893;59.754;10.110;2023-10-08T05:17:57;1.10;74.95
65291;SHT30;51893;59.754;10.110;2023-10-08T05:20:35;1.10;74.86
65291;SHT30;51893;59.754;10.110;2023-10-08T05:23:15;1.17;74.99
65291;SHT30;51893;59.754;10.110;2023-10-08T05:25:57;1.24;75.01
65291;SHT30;51893;59.754;10.110;2023-10-08T05:28:25;1.30;75.16
65291;SHT30;51893;59.754;10.110;2023-10-08T05:30:53;1.28;75.05
65291;SHT30;51893;59.754;10.110;2023-10-08T05:33:41;1.28;74.96
65291;SHT30;51893;59.754;10.110;2023-10-08T05:36:27;1.25;74.89
65291;SHT30;51893;59.754;10.110;2023-10-08T05:39:04;1.23;75.15
65291;SHT30;51893;59.754;10.110;2023-10-08T05:41:51;1.23;75.15
65291;SHT30;51893;59.754;10.110;2023-10-08T05:44:19;1.16;74.96
65291;SHT30;51893;59.754;10.110;2023-10-08T05:46:46;1.08;74.96
65291;SHT30;51893;59.754;10.110;2023-10-08T05:49:18;0.99;75.04
65291;SHT30;51893;59.754;10.110;2023-10-08T05:51:57;1.00;75.20
65291;SHT30;51893;59.754;10.110;2023-10-08T05:54:44;1.05;75.25
65291;SHT30;51893;59.754;10.110;2023-10-08T05:57:34;1.04;75.16
65291;SHT30;51893;59.754;10.110;2023-10-08T06:00:12;1.06;75.25
65291;SHT30;51893;59.754;10.110;2023-10-08T06:02:40;1.09;75.37
65291;SHT30;51893;59.754;10.110;2023-10-08T06:05:12;1.11;75.33
65291;SHT30;51893;59.754;10.110;2023-10-08T06:07:43;1.16;75.43
65291;SHT30;51893;59.754;10.110;2023-10-08T06:10:26;1.20;75.32
65291;SHT30;51893;59.754;10.110;2023-10-08T06:13:04;1.24;75.34
65291;SHT30;51893;59.754;10.110;2023-10-08T06:16:11;1.25;75.26
65291;SHT30;51893;59.754;10.110;2023-10-08T06:18:57;1.31;75.32
65291;SHT30;51893;59.754;10.110;2023-10-08T06:21:23;1.38;75.27
65291;SHT30;51893;59.754;10.110;2023-10-08T06:23:53;1.43;75.12
65291;SHT30;51893;59.754;10.110;2023-10-08T06:26:23;1.42;75.07
65291;SHT30;51893;59.754;10.110;2023-10-08T06:28:51;1.41;75.26
65291;SHT30;51893;59.754;10.110;2023-10-08T06:31:23;1.45;75.37
65291;SHT30;51893;59.754;10.110;2023-10-08T06:33:51;1.48;75.23
65291;SHT30;51893;59.754;10.110;2023-10-08T06:36:23;1.50;75.15
65291;SHT30;51893;59.754;10.110;2023-10-08T06:38:50;1.52;75.10
65291;SHT30;51893;59.754;10.110;2023-10-08T06:41:18;1.59;75.09
65291;SHT30;51893;59.754;10.110;2023-10-08T06:44:05;1.64;75.13
65291;SHT30;51893;59.754;10.110;2023-10-08T06:46:33;1.64;75.35
65291;SHT30;51893;59.754;10.110;2023-10-08T06:49:06;1.66;75.30
65291;SHT30;51893;59.754;10.110;2023-10-08T06:51:38;1.72;75.20
65291;SHT30;51893;59.754;10.110;2023-10-08T06:54:08;1.79;75.06
65291;SHT30;51893;59.754;10.110;2023-10-08T06:56:40;1.95;74.51
65291;SHT30;51893;59.754;10.110;2023-10-08T06:59:14;2.13;73.52
65291;SHT30;51893;59.754;10.110;2023-10-08T07:01:43;2.31;72.62
65291;SHT30;51893;59.754;10.110;2023-10-08T07:04:15;2.42;72.35
65291;SHT30;51893;59.754;10.110;2023-10-08T07:06:45;2.55;72.28
65291;SHT30;51893;59.754;10.110;2023-10-08T07:09:16;2.63;72.12
65291;SHT30;51893;59.754;10.110;2023-10-08T07:11:54;2.67;71.43
65291;SHT30;51893;59.754;10.110;2023-10-08T07:14:27;2.71;71.37
65291;SHT30;51893;59.754;10.110;2023-10-08T07:16:56;2.73;72.21
65291;SHT30;51893;59.754;10.110;2023-10-08T07:19:27;2.78;72.26
65291;SHT30;51893;59.754;10.110;2023-10-08T07:22:03;2.92;72.22
65291;SHT30;51893;59.754;10.110;2023-10-08T07:24:45;3.05;72.12
65291;SHT30;51893;59.754;10.110;2023-10-08T07:27:13;3.13;72.04
65291;SHT30;51893;59.754;10.110;2023-10-08T07:29:39;3.23;72.09
65291;SHT30;51893;59.754;10.110;2023-10-08T07:32:07;3.33;72.09
65291;SHT30;51893;59.754;10.110;2023-10-08T07:34:38;3.36;71.79
65291;SHT30;51893;59.754;10.110;2023-10-08T07:37:06;3.42;72.31
65291;SHT30;51893;59.754;10.110;2023-10-08T07:39:33;3.46;72.13
65291;SHT30;51893;59.754;10.110;2023-10-08T07:42:10;3.52;72.17
65291;SHT30;51893;59.754;10.110;2023-10-08T07:44:38;3.57;72.16
65291;SHT30;51893;59.754;10.110;2023-10-08T07:47:07;3.64;71.71
65291;SHT30;51893;59.754;10.110;2023-10-08T07:49:40;3.76;70.78
65291;SHT30;51893;59.754;10.110;2023-10-08T07:52:13;3.83;70.74
65291;SHT30;51893;59.754;10.110;2023-10-08T07:54:42;3.85;70.95
65291;SHT30;51893;59.754;10.110;2023-10-08T07:57:12;3.87;70.97
65291;SHT30;51893;59.754;10.110;2023-10-08T07:59:44;3.94;71.06
65291;SHT30;51893;59.754;10.110;2023-10-08T08:02:13;4.02;70.83
65291;SHT30;51893;59.754;10.110;2023-10-08T08:04:44;4.10;70.67
65291;SHT30;51893;59.754;10.110;2023-10-08T08:07:17;4.17;70.32
65291;SHT30;51893;59.754;10.110;2023-10-08T08:09:51;4.24;70.46
65291;SHT30;51893;59.754;10.110;2023-10-08T08:12:31;4.36;69.92
65291;SHT30;51893;59.754;10.110;2023-10-08T08:14:58;4.47;69.53
65291;SHT30;51893;59.754;10.110;2023-10-08T08:17:26;4.60;69.55
65291;SHT30;51893;59.754;10.110;2023-10-08T08:19:53;4.76;69.98
65291;SHT30;51893;59.754;10.110;2023-10-08T08:22:21;4.81;69.44
65291;SHT30;51893;59.754;10.110;2023-10-08T08:24:50;4.87;68.80
65291;SHT30;51893;59.754;10.110;2023-10-08T08:27:25;4.98;68.62
65291;SHT30;51893;59.754;10.110;2023-10-08T08:29:57;5.08;68.73
65291;SHT30;51893;59.754;10.110;2023-10-08T08:32:45;5.17;68.32
65291;SHT30;51893;59.754;10.110;2023-10-08T08:35:20;5.26;67.83
65291;SHT30;51893;59.754;10.110;2023-10-08T08:37:47;5.38;67.54
65291;SHT30;51893;59.754;10.110;2023-10-08T08:40:17;5.52;67.64
65291;SHT30;51893;59.754;10.110;2023-10-08T08:42:46;5.67;66.87
65291;SHT30;51893;59.754;10.110;2023-10-08T08:45:19;5.87;65.65
65291;SHT30;51893;59.754;10.110;2023-10-08T08:47:47;6.02;65.13
65291;SHT30;51893;59.754;10.110;2023-10-08T08:50:15;6.14;65.61
65291;SHT30;51893;59.754;10.110;2023-10-08T08:52:46;6.23;65.40
65291;SHT30;51893;59.754;10.110;2023-10-08T08:55:13;6.37;65.35
65291;SHT30;51893;59.754;10.110;2023-10-08T08:57:41;6.50;64.91
65291;SHT30;51893;59.754;10.110;2023-10-08T09:00:11;6.69;64.52
65291;SHT30;51893;59.754;10.110;2023-10-08T09:02:40;6.88;63.82
65291;SHT30;51893;59.754;10.110;2023-10-08T09:05:09;7.02;63.78
65291;SHT30;51893;59.754;10.110;2023-10-08T09:07:56;7.19;61.41
65291;SHT30;51893;59.754;10.110;2023-10-08T09:10:34;7.43;59.42
65291;SHT30;51893;59.754;10.110;2023-10-08T09:13:05;7.64;58.95
65291;SHT30;51893;59.754;10.110;2023-10-08T09:15:37;7.81;59.37
65291;SHT30;51893;59.754;10.110;2023-10-08T09:18:05;7.96;57.87
65291;SHT30;51893;59.754;10.110;2023-10-08T09:20:36;8.10;56.92
65291;SHT30;51893;59.754;10.110;2023-10-08T09:23:15;8.23;55.29
65291;SHT30;51893;59.754;10.110;2023-10-08T09:25:44;8.39;55.22
65291;SHT30;51893;59.754;10.110;2023-10-08T09:28:28;8.59;53.22
65291;SHT30;51893;59.754;10.110;2023-10-08T09:31:00;8.72;51.14
65291;SHT30;51893;59.754;10.110;2023-10-08T09:33:27;8.88;49.82
65291;SHT30;51893;59.754;10.110;2023-10-08T09:35:54;8.99;49.67
65291;SHT30;51893;59.754;10.110;2023-10-08T09:38:23;9.13;48.24
65291;SHT30;51893;59.754;10.110;2023-10-08T09:40:52;9.25;50.25
65291;SHT30;51893;59.754;10.110;2023-10-08T09:43:19;9.35;51.13
65291;SHT30;51893;59.754;10.110;2023-10-08T09:45:47;9.46;50.18
65291;SHT30;51893;59.754;10.110;2023-10-08T09:48:23;9.53;48.34
65291;SHT30;51893;59.754;10.110;2023-10-08T09:50:53;9.57;46.80
65291;SHT30;51893;59.754;10.110;2023-10-08T09:53:31;9.63;46.65
65291;SHT30;51893;59.754;10.110;2023-10-08T09:56:28;9.72;46.77
65291;SHT30;51893;59.754;10.110;2023-10-08T09:58:58;9.82;48.97
65291;SHT30;51893;59.754;10.110;2023-10-08T10:01:26;9.99;48.46
65291;SHT30;51893;59.754;10.110;2023-10-08T10:03:53;10.12;48.54
65291;SHT30;51893;59.754;10.110;2023-10-08T10:06:22;10.22;47.41
65291;SHT30;51893;59.754;10.110;2023-10-08T10:08:48;10.28;47.72
65291;SHT30;51893;59.754;10.110;2023-10-08T10:11:15;10.40;48.82
65291;SHT30;51893;59.754;10.110;2023-10-08T10:13:43;10.47;47.25
65291;SHT30;51893;59.754;10.110;2023-10-08T10:16:17;10.56;46.60
65291;SHT30;51893;59.754;10.110;2023-10-08T10:18:48;10.60;46.65
65291;SHT30;51893;59.754;10.110;2023-10-08T10:23:43;10.79;46.03
65291;SHT30;51893;59.754;10.110;2023-10-08T10:31:44;11.18;44.72
65291;SHT30;51893;59.754;10.110;2023-10-08T10:34:26;11.18;44.21
65291;SHT30;51893;59.754;10.110;2023-10-08T10:36:55;11.14;44.47
65291;SHT30;51893;59.754;10.110;2023-10-08T10:39:25;11.15;45.19
65291;SHT30;51893;59.754;10.110;2023-10-08T10:41:54;11.18;44.53
65291;SHT30;51893;59.754;10.110;2023-10-08T10:44:27;11.21;45.04
65291;SHT30;51893;59.754;10.110;2023-10-08T10:46:56;11.27;44.34
65291;SHT30;51893;59.754;10.110;2023-10-08T10:49:42;11.30;46.44
65291;SHT30;51893;59.754;10.110;2023-10-08T10:52:17;11.36;46.40
65291;SHT30;51893;59.754;10.110;2023-10-08T10:55:11;11.43;47.18
65291;SHT30;51893;59.754;10.110;2023-10-08T10:57:43;11.43;46.46
65291;SHT30;51893;59.754;10.110;2023-10-08T11:00:30;11.58;47.37
65291;SHT30;51893;59.754;10.110;2023-10-08T11:03:03;11.60;45.63
65291;SHT30;51893;59.754;10.110;2023-10-08T11:05:45;11.53;45.44
65291;SHT30;51893;59.754;10.110;2023-10-08T11:08:17;11.62;45.85
65291;SHT30;51893;59.754;10.110;2023-10-08T11:10:47;11.77;44.70
65291;SHT30;51893;59.754;10.110;2023-10-08T11:13:21;11.93;46.00
65291;SHT30;51893;59.754;10.110;2023-10-08T11:15:54;12.11;46.12
65291;SHT30;51893;59.754;10.110;2023-10-08T11:18:25;12.20;43.73
65291;SHT30;51893;59.754;10.110;2023-10-08T11:21:09;12.32;45.45
65291;SHT30;51893;59.754;10.110;2023-10-08T11:23:47;12.48;45.34
65291;SHT30;51893;59.754;10.110;2023-10-08T11:26:22;12.57;44.63
65291;SHT30;51893;59.754;10.110;2023-10-08T11:29:01;12.66;43.57
65291;SHT30;51893;59.754;10.110;2023-10-08T11:31:29;12.74;41.86
65291;SHT30;51893;59.754;10.110;2023-10-08T11:34:00;12.80;43.17
65291;SHT30;51893;59.754;10.110;2023-10-08T11:36:36;12.90;43.84
65291;SHT30;51893;59.754;10.110;2023-10-08T11:39:23;13.03;44.80
65291;SHT30;51893;59.754;10.110;2023-10-08T11:41:57;13.15;44.55
65291;SHT30;51893;59.754;10.110;2023-10-08T11:44:43;13.40;45.21
65291;SHT30;51893;59.754;10.110;2023-10-08T11:47:11;13.45;44.86
65291;SHT30;51893;59.754;10.110;2023-10-08T11:49:38;13.65;44.87
65291;SHT30;51893;59.754;10.110;2023-10-08T11:52:14;13.76;44.20
65291;SHT30;51893;59.754;10.110;2023-10-08T11:54:42;13.83;43.50
65291;SHT30;51893;59.754;10.110;2023-10-08T11:57:10;13.85;43.20
65291;SHT30;51893;59.754;10.110;2023-10-08T11:59:38;13.90;42.87
65291;SHT30;51893;59.754;10.110;2023-10-08T12:02:06;13.92;41.63
65291;SHT30;51893;59.754;10.110;2023-10-08T12:04:33;13.81;41.03
65291;SHT30;51893;59.754;10.110;2023-10-08T12:07:00;13.77;41.26
65291;SHT30;51893;59.754;10.110;2023-10-08T12:09:29;13.82;40.94
65291;SHT30;51893;59.754;10.110;2023-10-08T12:11:55;13.65;40.39
65291;SHT30;51893;59.754;10.110;2023-10-08T12:14:23;13.70;42.04
65291;SHT30;51893;59.754;10.110;2023-10-08T12:16:56;13.80;40.85
65291;SHT30;51893;59.754;10.110;2023-10-08T12:19:27;13.72;40.00
65291;SHT30;51893;59.754;10.110;2023-10-08T12:21:58;13.56;38.77
65291;SHT30;51893;59.754;10.110;2023-10-08T12:24:29;13.46;39.66
65291;SHT30;51893;59.754;10.110;2023-10-08T12:26:55;13.42;39.99
65291;SHT30;51893;59.754;10.110;2023-10-08T12:29:22;13.37;39.65
65291;SHT30;51893;59.754;10.110;2023-10-08T12:31:51;13.35;40.69
65291;SHT30;51893;59.754;10.110;2023-10-08T12:34:19;13.43;41.89
65291;SHT30;51893;59.754;10.110;2023-10-08T12:36:49;13.49;41.27
65291;SHT30;51893;59.754;10.110;2023-10-08T12:39:16;13.43;38.59
65291;SHT30;51893;59.754;10.110;2023-10-08T12:41:44;13.23;39.69
65291;SHT30;51893;59.754;10.110;2023-10-08T12:44:11;13.21;40.86
65291;SHT30;51893;59.754;10.110;2023-10-08T12:46:39;13.26;41.49
65291;SHT30;51893;59.754;10.110;2023-10-08T12:49:05;13.29;42.40
65291;SHT30;51893;59.754;10.110;2023-10-08T12:51:33;13.26;41.73
65291;SHT30;51893;59.754;10.110;2023-10-08T12:54:00;13.18;40.00
65291;SHT30;51893;59.754;10.110;2023-10-08T12:56:33;13.02;40.43
65291;SHT30;51893;59.754;10.110;2023-10-08T12:59:20;12.86;38.47
65291;SHT30;51893;59.754;10.110;2023-10-08T13:01:48;12.65;38.70
65291;SHT30;51893;59.754;10.110;2023-10-08T13:04:22;12.50;38.73
65291;SHT30;51893;59.754;10.110;2023-10-08T13:07:01;12.39;39.23
65291;SHT30;51893;59.754;10.110;2023-10-08T13:09:29;12.34;39.23
65291;SHT30;51893;59.754;10.110;2023-10-08T13:12:03;12.28;38.85
65291;SHT30;51893;59.754;10.110;2023-10-08T13:14:30;12.27;39.89
65291;SHT30;51893;59.754;10.110;2023-10-08T13:17:01;12.23;39.61
65291;SHT30;51893;59.754;10.110;2023-10-08T13:19:29;12.19;39.37
65291;SHT30;51893;59.754;10.110;2023-10-08T13:22:00;12.21;40.43
65291;SHT30;51893;59.754;10.110;2023-10-08T13:24:26;12.21;40.62
65291;SHT30;51893;59.754;10.110;2023-10-08T13:26:55;12.16;39.82
65291;SHT30;51893;59.754;10.110;2023-10-08T13:29:24;12.12;40.15
65291;SHT30;51893;59.754;10.110;2023-10-08T13:31:58;12.12;41.15
65291;SHT30;51893;59.754;10.110;2023-10-08T13:34:26;12.11;41.00
65291;SHT30;51893;59.754;10.110;2023-10-08T13:36:52;12.11;41.08
65291;SHT30;51893;59.754;10.110;2023-10-08T13:39:19;12.06;40.83
65291;SHT30;51893;59.754;10.110;2023-10-08T13:41:47;12.07;42.68
65291;SHT30;51893;59.754;10.110;2023-10-08T13:44:15;12.10;42.91
65291;SHT30;51893;59.754;10.110;2023-10-08T13:46:43;12.06;41.19
65291;SHT30;51893;59.754;10.110;2023-10-08T13:49:15;12.03;40.68
65291;SHT30;51893;59.754;10.110;2023-10-08T13:51:43;12.03;41.83
65291;SHT30;51893;59.754;10.110;2023-10-08T13:54:11;12.04;43.48
65291;SHT30;51893;59.754;10.110;2023-10-08T13:56:38;12.05;44.43
65291;SHT30;51893;59.754;10.110;2023-10-08T13:59:08;12.07;44.31
65291;SHT30;51893;59.754;10.110;2023-10-08T14:01:39;12.06;45.11
65291;SHT30;51893;59.754;10.110;2023-10-08T14:04:17;12.03;45.29
65291;SHT30;51893;59.754;10.110;2023-10-08T14:06:53;11.99;45.66
65291;SHT30;51893;59.754;10.110;2023-10-08T14:09:21;11.94;46.08
65291;SHT30;51893;59.754;10.110;2023-10-08T14:11:59;11.89;46.64
65291;SHT30;51893;59.754;10.110;2023-10-08T14:14:26;11.89;46.70
65291;SHT30;51893;59.754;10.110;2023-10-08T14:16:56;11.84;46.23
65291;SHT30;51893;59.754;10.110;2023-10-08T14:19:32;11.82;46.79
65291;SHT30;51893;59.754;10.110;2023-10-08T14:22:26;11.77;46.61
65291;SHT30;51893;59.754;10.110;2023-10-08T14:24:53;11.71;47.99
65291;SHT30;51893;59.754;10.110;2023-10-08T14:27:28;11.64;50.21
65291;SHT30;51893;59.754;10.110;2023-10-08T14:30:00;11.55;50.56
65291;SHT30;51893;59.754;10.110;2023-10-08T14:32:33;11.46;50.30
65291;SHT30;51893;59.754;10.110;2023-10-08T14:35:01;11.40;52.17
65291;SHT30;51893;59.754;10.110;2023-10-08T14:37:46;11.31;54.08
65291;SHT30;51893;59.754;10.110;2023-10-08T14:40:33;11.23;55.36
65291;SHT30;51893;59.754;10.110;2023-10-08T14:43:18;11.16;55.97
65291;SHT30;51893;59.754;10.110;2023-10-08T14:45:49;11.10;56.63
65291;SHT30;51893;59.754;10.110;2023-10-08T14:48:16;11.04;57.34
65291;SHT30;51893;59.754;10.110;2023-10-08T14:50:43;10.91;56.68
65291;SHT30;51893;59.754;10.110;2023-10-08T14:53:12;10.81;56.08
65291;SHT30;51893;59.754;10.110;2023-10-08T14:55:39;10.77;56.40
65291;SHT30;51893;59.754;10.110;2023-10-08T14:58:06;10.73;56.53
65291;SHT30;51893;59.754;10.110;2023-10-08T15:00:34;10.62;56.55
65291;SHT30;51893;59.754;10.110;2023-10-08T15:03:05;10.57;56.98
65291;SHT30;51893;59.754;10.110;2023-10-08T15:05:32;10.56;57.73
65291;SHT30;51893;59.754;10.110;2023-10-08T15:07:59;10.58;58.09
65291;SHT30;51893;59.754;10.110;2023-10-08T15:10:25;10.63;58.41
65291;SHT30;51893;59.754;10.110;2023-10-08T15:12:52;10.54;59.04
65291;SHT30;51893;59.754;10.110;2023-10-08T15:15:19;10.51;59.45
65291;SHT30;51893;59.754;10.110;2023-10-08T15:17:49;10.50;59.60
65291;SHT30;51893;59.754;10.110;2023-10-08T15:20:18;10.40;60.48
65291;SHT30;51893;59.754;10.110;2023-10-08T15:22:47;10.31;59.79
65291;SHT30;51893;59.754;10.110;2023-10-08T15:25:16;10.28;59.51
65291;SHT30;51893;59.754;10.110;2023-10-08T15:27:46;10.25;58.99
65291;SHT30;51893;59.754;10.110;2023-10-08T15:30:17;10.22;58.52
65291;SHT30;51893;59.754;10.110;2023-10-08T15:32:47;10.28;58.16
65291;SHT30;51893;59.754;10.110;2023-10-08T15:35:17;10.30;58.22
65291;SHT30;51893;59.754;10.110;2023-10-08T15:37:51;10.20;58.94
65291;SHT30;51893;59.754;10.110;2023-10-08T15:40:21;10.03;59.97
65291;SHT30;51893;59.754;10.110;2023-10-08T15:42:50;9.92;60.41
65291;SHT30;51893;59.754;10.110;2023-10-08T15:45:24;9.86;61.18
65291;SHT30;51893;59.754;10.110;2023-10-08T15:47:52;9.68;62.53
65291;SHT30;51893;59.754;10.110;2023-10-08T15:50:21;9.58;63.24
65291;SHT30;51893;59.754;10.110;2023-10-08T15:52:51;9.51;63.41
65291;SHT30;51893;59.754;10.110;2023-10-08T15:55:17;9.43;63.73
65291;SHT30;51893;59.754;10.110;2023-10-08T15:57:45;9.30;63.45
65291;SHT30;51893;59.754;10.110;2023-10-08T16:00:12;9.24;63.20
65291;SHT30;51893;59.754;10.110;2023-10-08T16:02:40;9.23;63.58
65291;SHT30;51893;59.754;10.110;2023-10-08T16:05:10;9.17;63.75
65291;SHT30;51893;59.754;10.110;2023-10-08T16:07:37;9.07;62.03